Bayboro, North Carolina
Current Conditions -  °F | °C
As of 10:54 PM on Sunday 23 Nov 2014 (Local Time) from KEWN Reporting Station
Light Rain Light Rain  
Wind Chill: 71°   Ceiling: 1800
Heat Index: 71°   Visibility: 10mi
Dew Point: 64°   Wind: 13mph
Humidity: 78%   Direction: 170°S
Pressure: 29.88"   Gusts: 30mph
Location:  35.14°N, 76.77°W
Report Text: KEWN 240354Z AUTO 17011G26KT 10SM -RA BKN018 BKN025 OVC040 22/18 A2988 RMK AO2 PK WND 14031/0330 RAB06E15B39 SLP119 P0000 T02170178
Loading
Personal Weather Stations






























Interactive Weather Map New forecast layout! Learn more

10-Day Weather Forecast

Advertisements
Track Severe Weather on mobile